Time;durP1;ratioP1;P1;durP2;ratioP2;P2;SDS_P1;SDS_P2;PMS_P1;PMS_P2;Temp;Humidity;BMP_temperature;BMP_pressure;BME280_temperature;BME280_humidity;BME280_pressure;Samples;Min_cycle;Max_cycle;Signal;HPM_P1;HPM_P2
2022/11/24 00:00:33;;;;;;;;;3.00;3.00;;;;;10.42;75.25;100100.00;5075908;28;45604;-59
2022/11/24 00:02:59;;;;;;;;;5.33;3.00;;;;;10.44;75.64;100100.75;5070258;27;45439;-61
2022/11/24 00:05:25;;;;;;;;;5.75;3.50;;;;;10.44;75.30;100100.75;5075983;28;45406;-62
2022/11/24 00:07:50;;;;;;;;;6.00;2.00;;;;;10.42;74.90;100098.19;5061474;28;45581;-61
2022/11/24 00:10:16;;;;;;;;;4.50;4.00;;;;;10.44;75.26;100087.44;5055328;28;46017;-61
2022/11/24 00:12:41;;;;;;;;;5.25;2.00;;;;;10.48;75.16;100100.44;5054254;28;45378;-64
2022/11/24 00:15:07;;;;;;;;;2.67;2.33;;;;;10.48;75.12;100111.06;5062069;28;45320;-62
2022/11/24 00:17:33;;;;;;;;;3.00;3.00;;;;;10.44;75.83;100117.53;5076054;28;45325;-63
2022/11/24 00:19:58;;;;;;;;;3.25;1.50;;;;;10.44;75.14;100106.91;5059938;28;47544;-61
2022/11/24 00:22:23;;;;;;;;;3.25;1.00;;;;;10.48;75.63;100103.09;5059500;28;45330;-63
2022/11/24 00:24:49;;;;;;;;;5.25;3.25;;;;;10.54;74.89;100102.69;5074813;28;45216;-61
2022/11/24 00:27:14;;;;;;;;;6.50;3.50;;;;;10.58;74.70;100098.91;5076300;27;45506;-63
2022/11/24 00:29:40;;;;;;;;;4.25;2.50;;;;;10.60;74.61;100094.34;5075709;28;45712;-63
2022/11/24 00:32:05;;;;;;;;;4.33;3.00;;;;;10.59;74.98;100092.63;5061096;27;46251;-59
2022/11/24 00:34:31;;;;;;;;;7.67;2.33;;;;;10.60;74.95;100086.38;5079640;28;45490;-62
2022/11/24 00:36:57;;;;;;;;;6.75;3.00;;;;;10.61;74.89;100066.78;5076542;28;45391;-62
2022/11/24 00:39:22;;;;;;;;;5.67;2.00;;;;;10.63;75.03;100070.22;5078894;28;45485;-63
2022/11/24 00:41:47;;;;;;;;;2.00;2.00;;;;;10.64;74.25;100042.66;5064751;28;45332;-64
2022/11/24 00:44:13;;;;;;;;;5.50;1.25;;;;;10.61;74.40;100044.66;5040794;28;45401;-63
2022/11/24 00:46:38;;;;;;;;;3.50;2.50;;;;;10.67;73.98;100059.38;5059070;28;45632;-62
2022/11/24 00:49:04;;;;;;;;;7.00;1.00;;;;;10.72;73.31;100062.59;5059087;28;46189;-61
2022/11/24 00:51:29;;;;;;;;;3.33;1.00;;;;;10.73;72.91;100064.31;5069602;27;45444;-64
2022/11/24 00:53:56;;;;;;;;;1.00;1.00;;;;;10.72;73.07;100055.47;5063469;28;45332;-62
2022/11/24 00:56:23;;;;;;;;;8.33;1.00;;;;;10.76;73.63;100035.69;5079130;28;45247;-61
2022/11/24 00:58:49;;;;;;;;;4.00;1.00;;;;;10.78;72.08;100046.22;5077122;28;45409;-60
2022/11/24 01:01:24;;;;;;;;;4.33;1.00;;;;;10.75;72.62;100046.44;5079191;27;45184;-60
2022/11/24 01:03:49;;;;;;;;;1.00;1.00;;;;;10.78;71.79;100051.53;5078824;28;45222;-62
2022/11/24 01:06:23;;;;;;;;;2.00;1.00;;;;;10.86;72.40;100055.41;5079619;28;45173;-61
2022/11/24 01:08:48;;;;;;;;;4.33;1.00;;;;;10.89;72.52;100080.97;5079226;28;45256;-60
2022/11/24 01:11:16;;;;;;;;;1.67;1.67;;;;;10.88;71.83;100085.44;5078688;27;45603;-63
2022/11/24 01:13:43;;;;;;;;;1.00;1.00;;;;;10.89;70.99;100075.63;5061023;28;45413;-64
2022/11/24 01:16:15;;;;;;;;;7.00;1.00;;;;;10.90;70.43;100082.66;5059899;28;45521;-64
2022/11/24 01:18:40;;;;;;;;;4.33;1.00;;;;;10.88;70.37;100100.53;5060180;28;47268;-64
2022/11/24 01:21:05;;;;;;;;;0.00;0.00;;;;;10.86;70.12;100107.78;5061291;28;45260;-61
2022/11/24 01:23:31;;;;;;;;;1.00;0.67;;;;;10.84;70.35;100109.69;5082401;27;45274;-63
2022/11/24 01:25:56;;;;;;;;;1.00;1.00;;;;;10.82;70.06;100106.28;5081694;27;45704;-61
2022/11/24 01:28:22;;;;;;;;;2.00;0.67;;;;;10.73;70.85;100101.53;5048689;28;47548;-60
2022/11/24 01:30:56;;;;;;;;;2.00;0.00;;;;;10.75;71.28;100115.59;5062052;28;45462;-60
2022/11/24 01:33:22;;;;;;;;;1.00;0.00;;;;;10.70;70.00;100121.22;5042082;28;45398;-61
2022/11/24 01:35:47;;;;;;;;;0.00;0.00;;;;;10.68;68.89;100117.81;5040036;28;45567;-64
2022/11/24 01:38:12;;;;;;;;;1.00;0.00;;;;;10.64;69.38;100117.13;5077961;28;46157;-61
2022/11/24 01:40:38;;;;;;;;;2.00;0.00;;;;;10.60;70.22;100110.28;5078392;28;45328;-61
2022/11/24 01:43:18;;;;;;;;;0.00;0.00;;;;;10.59;69.14;100121.88;5079766;27;45288;-62
2022/11/24 01:45:44;;;;;;;;;0.00;0.00;;;;;10.53;69.98;100122.25;5075299;28;45357;-62
2022/11/24 01:48:24;;;;;;;;;0.00;0.00;;;;;10.53;70.06;100140.88;5059965;28;46190;-61
2022/11/24 01:50:59;;;;;;;;;0.67;0.00;;;;;10.51;69.37;100134.81;5076924;28;45492;-62
2022/11/24 01:53:24;;;;;;;;;2.33;0.00;;;;;10.49;69.80;100138.50;5076825;28;45474;-62
2022/11/24 01:55:52;;;;;;;;;2.00;0.00;;;;;10.48;69.93;100145.63;5059968;28;45504;-64
2022/11/24 01:58:26;;;;;;;;;2.00;0.00;;;;;10.47;69.68;100154.56;5078302;27;46177;-62
2022/11/24 02:00:52;;;;;;;;;0.67;0.00;;;;;10.41;69.57;100164.72;5075864;27;45309;-61
2022/11/24 02:03:24;;;;;;;;;0.00;0.00;;;;;10.41;69.91;100173.53;5075026;27;46750;-59
2022/11/24 02:05:57;;;;;;;;;1.00;0.00;;;;;10.35;69.74;100179.25;5053218;28;45518;-62
2022/11/24 02:08:36;;;;;;;;;1.67;0.00;;;;;10.38;70.65;100186.19;5068151;28;46459;-60
2022/11/24 02:11:03;;;;;;;;;0.00;0.00;;;;;10.37;70.66;100190.63;5059022;28;45339;-61
2022/11/24 02:13:29;;;;;;;;;0.00;0.00;;;;;10.34;70.59;100185.53;5077974;28;45224;-62
2022/11/24 02:15:55;;;;;;;;;0.00;0.00;;;;;10.29;71.04;100199.09;5077732;28;45307;-63
2022/11/24 02:18:21;;;;;;;;;0.00;0.00;;;;;10.27;71.65;100210.75;5069921;28;47279;-62
2022/11/24 02:20:46;;;;;;;;;0.00;0.00;;;;;10.28;70.96;100209.78;5069435;28;45390;-62
2022/11/24 02:23:18;;;;;;;;;0.00;0.00;;;;;10.29;72.76;100232.81;5068690;28;45300;-61
2022/11/24 02:25:49;;;;;;;;;0.00;0.00;;;;;10.29;72.38;100228.34;5057483;28;45240;-61
2022/11/24 02:28:20;;;;;;;;;0.00;0.00;;;;;10.27;72.76;100237.31;5056921;28;46395;-61
2022/11/24 02:30:45;;;;;;;;;0.00;0.00;;;;;10.25;72.75;100239.22;5056795;28;45268;-62
2022/11/24 02:33:11;;;;;;;;;0.33;0.00;;;;;10.22;72.44;100226.97;5065795;28;45295;-58
2022/11/24 02:35:37;;;;;;;;;0.00;0.00;;;;;10.20;72.81;100242.13;5056052;28;45682;-61
2022/11/24 02:38:02;;;;;;;;;1.00;0.00;;;;;10.21;73.16;100248.31;5057336;28;46235;-63
2022/11/24 02:40:29;;;;;;;;;1.00;0.00;;;;;10.18;73.25;100245.84;5065472;28;45334;-62
2022/11/24 02:43:09;;;;;;;;;1.00;0.00;;;;;10.13;74.80;100248.75;5056892;27;45469;-62
2022/11/24 02:45:35;;;;;;;;;2.00;0.00;;;;;10.14;74.52;100247.81;5070595;27;45446;-62
2022/11/24 02:48:00;;;;;;;;;0.00;0.00;;;;;10.17;74.31;100263.59;5076565;28;45302;-62
2022/11/24 02:50:26;;;;;;;;;4.33;1.00;;;;;10.12;74.52;100265.66;5076849;28;45315;-61
2022/11/24 02:52:51;;;;;;;;;1.67;1.00;;;;;10.11;75.15;100273.72;5065351;28;45303;-62
2022/11/24 02:55:16;;;;;;;;;0.67;0.67;;;;;10.04;75.50;100260.81;5039091;28;45377;-65
2022/11/24 02:57:42;;;;;;;;;1.00;1.00;;;;;10.10;74.78;100290.59;5057242;28;46532;-62
2022/11/24 03:00:08;;;;;;;;;1.00;0.00;;;;;10.05;74.98;100274.94;5075486;27;45584;-60
2022/11/24 03:02:34;;;;;;;;;0.00;0.00;;;;;9.99;75.01;100275.28;5076913;27;45261;-61
2022/11/24 03:04:59;;;;;;;;;0.00;0.00;;;;;10.03;75.64;100293.63;5076735;28;45393;-59
2022/11/24 03:07:24;;;;;;;;;2.00;0.33;;;;;9.99;75.32;100307.16;5076584;28;46421;-61
2022/11/24 03:09:50;;;;;;;;;2.75;1.00;;;;;9.98;75.78;100310.75;5065131;28;45404;-60
2022/11/24 03:12:15;;;;;;;;;5.00;1.00;;;;;9.95;76.09;100309.16;5056554;28;45515;-61
2022/11/24 03:14:40;;;;;;;;;2.00;1.00;;;;;9.97;76.36;100323.19;5057283;28;45471;-61
2022/11/24 03:17:06;;;;;;;;;1.00;1.00;;;;;9.94;75.87;100322.53;5056425;28;45346;-62
2022/11/24 03:19:32;;;;;;;;;0.00;0.00;;;;;9.95;76.54;100333.06;5056554;28;45311;-61
2022/11/24 03:21:57;;;;;;;;;2.00;1.00;;;;;9.93;75.75;100334.09;5046302;28;45543;-61
2022/11/24 03:24:23;;;;;;;;;0.00;0.00;;;;;9.85;76.75;100331.88;5079787;27;45231;-61
2022/11/24 03:26:48;;;;;;;;;2.25;1.00;;;;;9.86;76.83;100325.59;5065014;28;45272;-61
2022/11/24 03:29:13;;;;;;;;;0.00;0.00;;;;;9.88;75.99;100333.47;5062913;28;45374;-68
2022/11/24 03:31:39;;;;;;;;;1.00;1.00;;;;;9.87;76.61;100327.31;5064669;28;45720;-60
2022/11/24 03:34:04;;;;;;;;;1.50;1.00;;;;;9.88;76.59;100337.00;5056569;28;46092;-62
2022/11/24 03:36:29;;;;;;;;;2.00;2.00;;;;;9.86;76.35;100338.88;5043728;28;46130;-65
2022/11/24 03:38:55;;;;;;;;;1.33;1.00;;;;;9.85;76.26;100333.66;5076136;28;45631;-62
2022/11/24 03:41:20;;;;;;;;;2.33;1.00;;;;;9.82;76.03;100337.38;5081873;27;45346;-61
2022/11/24 03:43:49;;;;;;;;;2.00;1.00;;;;;9.79;76.49;100326.91;5072800;28;45433;-61
2022/11/24 03:46:14;;;;;;;;;2.67;0.00;;;;;9.80;76.50;100331.28;5070651;27;45462;-61
2022/11/24 03:48:40;;;;;;;;;5.00;1.00;;;;;9.77;76.41;100318.19;5083011;27;45345;-64
2022/11/24 03:51:05;;;;;;;;;0.00;0.00;;;;;9.76;76.88;100316.44;5057007;27;45422;-61
2022/11/24 03:53:32;;;;;;;;;1.33;1.00;;;;;9.74;76.63;100321.84;5081171;27;45580;-62
2022/11/24 03:55:58;;;;;;;;;6.00;1.00;;;;;9.74;76.70;100332.47;5075078;27;45369;-61
2022/11/24 03:58:24;;;;;;;;;2.00;0.50;;;;;9.71;76.66;100335.31;5055329;28;45877;-61
2022/11/24 04:00:51;;;;;;;;;0.00;0.00;;;;;9.75;76.40;100335.97;5075105;27;45228;-60
2022/11/24 04:03:18;;;;;;;;;1.25;0.25;;;;;9.77;76.37;100343.91;5055700;28;45616;-60
2022/11/24 04:05:43;;;;;;;;;7.50;0.00;;;;;9.75;76.37;100352.78;5073866;27;45426;-61
2022/11/24 04:08:09;;;;;;;;;6.50;1.25;;;;;9.73;75.67;100359.97;5079712;28;45456;-62
2022/11/24 04:10:36;;;;;;;;;0.75;0.00;;;;;9.73;75.98;100359.13;5078848;28;45397;-61
2022/11/24 04:13:03;;;;;;;;;1.00;1.00;;;;;9.72;77.00;100360.06;5079763;28;45585;-66
2022/11/24 04:15:28;;;;;;;;;0.00;0.00;;;;;9.71;77.04;100366.31;5078773;27;46021;-62
2022/11/24 04:17:55;;;;;;;;;1.00;1.00;;;;;9.69;76.47;100361.09;5067668;28;45407;-59
2022/11/24 04:20:20;;;;;;;;;2.25;1.00;;;;;9.68;76.97;100361.19;5059062;28;45321;-62
2022/11/24 04:22:46;;;;;;;;;7.75;0.00;;;;;9.66;76.85;100373.69;5059533;28;45286;-63
2022/11/24 04:25:11;;;;;;;;;0.00;0.00;;;;;9.66;77.27;100373.69;5074907;28;45456;-63
2022/11/24 04:27:38;;;;;;;;;1.25;1.25;;;;;9.62;77.42;100373.00;5060802;28;45337;-63
2022/11/24 04:30:05;;;;;;;;;0.00;0.00;;;;;9.61;77.44;100375.72;5056478;28;45425;-61
2022/11/24 04:32:30;;;;;;;;;2.75;0.75;;;;;9.63;77.17;100387.13;5079257;28;45366;-63
2022/11/24 04:34:56;;;;;;;;;1.00;1.00;;;;;9.59;76.97;100391.75;5031880;28;45490;-64
2022/11/24 04:37:21;;;;;;;;;2.00;0.50;;;;;9.56;77.17;100391.94;5072251;28;45451;-62
2022/11/24 04:39:49;;;;;;;;;0.75;0.75;;;;;9.56;77.68;100393.72;5081217;28;45392;-65
2022/11/24 04:42:14;;;;;;;;;4.00;1.50;;;;;9.55;77.67;100392.00;5075178;28;45570;-62
2022/11/24 04:44:40;;;;;;;;;1.50;0.75;;;;;9.53;77.64;100393.91;5060381;28;45314;-61
2022/11/24 04:47:05;;;;;;;;;0.00;0.00;;;;;9.48;78.38;100395.94;5079097;27;45464;-62
2022/11/24 04:49:31;;;;;;;;;0.50;0.50;;;;;9.49;77.18;100392.34;5079133;27;45309;-59
2022/11/24 04:51:56;;;;;;;;;1.25;1.25;;;;;9.52;77.46;100397.50;5066426;27;45219;-60
2022/11/24 04:54:22;;;;;;;;;1.00;1.00;;;;;9.51;78.07;100409.06;5075541;27;46068;-62
2022/11/24 04:56:51;;;;;;;;;0.75;0.75;;;;;9.48;77.34;100406.56;5078104;27;45573;-61
2022/11/24 04:59:18;;;;;;;;;0.00;0.00;;;;;9.50;77.25;100415.28;5077020;27;45367;-63
2022/11/24 05:01:45;;;;;;;;;1.75;0.75;;;;;9.43;77.58;100406.81;5078132;27;45555;-62
2022/11/24 05:04:12;;;;;;;;;0.00;0.00;;;;;9.49;77.36;100424.19;5078452;27;45251;-61
2022/11/24 05:06:38;;;;;;;;;1.00;1.00;;;;;9.43;77.29;100420.09;5080490;27;45568;-60
2022/11/24 05:09:04;;;;;;;;;1.75;0.75;;;;;9.46;77.51;100426.06;5068171;27;45592;-63
2022/11/24 05:11:29;;;;;;;;;1.00;0.00;;;;;9.45;77.73;100424.38;5077927;27;45319;-61
2022/11/24 05:13:55;;;;;;;;;2.67;0.00;;;;;9.46;77.56;100423.41;5076958;27;45767;-61
2022/11/24 05:16:20;;;;;;;;;0.25;0.25;;;;;9.35;77.59;100401.06;5076746;27;45511;-60
2022/11/24 05:18:46;;;;;;;;;0.50;0.50;;;;;9.45;77.91;100419.06;5074648;27;46247;-60
2022/11/24 05:21:11;;;;;;;;;1.00;1.00;;;;;9.43;77.41;100418.28;5075897;27;45829;-60
2022/11/24 05:23:36;;;;;;;;;0.00;0.00;;;;;9.46;77.20;100428.72;5078417;27;45552;-62
2022/11/24 05:26:03;;;;;;;;;5.33;0.00;;;;;9.46;77.33;100439.34;5075949;27;45753;-61
2022/11/24 05:28:29;;;;;;;;;2.00;1.00;;;;;9.45;77.40;100431.47;5076961;27;45279;-61
2022/11/24 05:31:00;;;;;;;;;1.00;1.00;;;;;9.43;77.55;100436.88;5076725;27;45264;-61
2022/11/24 05:33:27;;;;;;;;;0.67;0.67;;;;;9.45;77.36;100445.59;5076578;27;45794;-60
2022/11/24 05:35:53;;;;;;;;;2.50;1.00;;;;;9.44;78.02;100445.69;5077236;27;45465;-60
2022/11/24 05:38:21;;;;;;;;;0.75;0.75;;;;;9.44;77.82;100435.91;5079529;27;45268;-61
2022/11/24 05:40:46;;;;;;;;;1.00;1.00;;;;;9.43;78.07;100443.97;5075464;27;45247;-60
2022/11/24 05:43:15;;;;;;;;;0.50;0.00;;;;;9.42;77.76;100435.16;5064663;28;46628;-60
2022/11/24 05:45:42;;;;;;;;;2.25;1.00;;;;;9.40;78.17;100441.50;5077894;27;45526;-61
2022/11/24 05:48:10;;;;;;;;;1.75;1.75;;;;;9.42;78.04;100451.09;5075218;27;46064;-61
2022/11/24 05:50:35;;;;;;;;;2.25;1.25;;;;;9.39;78.01;100447.75;5068302;27;45554;-61
2022/11/24 05:53:06;;;;;;;;;1.75;1.75;;;;;9.44;78.04;100461.63;5067150;27;46138;-60
2022/11/24 05:55:31;;;;;;;;;0.00;0.00;;;;;9.40;77.90;100457.41;5081712;27;45478;-61
2022/11/24 05:57:59;;;;;;;;;1.00;0.00;;;;;9.49;78.36;100469.31;5076864;27;45432;-62
2022/11/24 06:00:24;;;;;;;;;1.00;1.00;;;;;9.48;77.82;100467.59;5073821;27;45315;-61
2022/11/24 06:02:50;;;;;;;;;1.50;0.75;;;;;9.45;78.73;100460.66;5077819;28;46311;-62
2022/11/24 06:05:15;;;;;;;;;2.00;1.00;;;;;9.50;78.62;100473.69;5077503;28;45287;-62
2022/11/24 06:07:41;;;;;;;;;4.00;1.50;;;;;9.48;78.25;100476.44;5080593;27;45421;-62
2022/11/24 06:10:06;;;;;;;;;9.75;1.00;;;;;9.50;77.41;100479.84;5076613;27;45584;-62
2022/11/24 06:12:32;;;;;;;;;1.75;1.75;;;;;9.54;78.45;100485.88;5077180;28;45357;-62
2022/11/24 06:14:57;;;;;;;;;6.00;1.75;;;;;9.55;78.03;100484.94;5075927;28;45532;-62
2022/11/24 06:17:23;;;;;;;;;1.00;1.00;;;;;9.53;78.36;100490.34;5080219;27;45503;-62
2022/11/24 06:19:50;;;;;;;;;2.50;2.50;;;;;9.55;77.77;100492.91;5075287;27;45545;-62
2022/11/24 06:22:17;;;;;;;;;1.25;1.00;;;;;9.55;78.44;100493.75;5076385;27;46365;-63
2022/11/24 06:24:43;;;;;;;;;1.75;1.75;;;;;9.52;78.50;100493.06;5077504;28;45406;-62
2022/11/24 06:27:08;;;;;;;;;6.00;1.25;;;;;9.51;78.54;100496.66;5079325;27;45660;-62
2022/11/24 06:29:33;;;;;;;;;1.50;1.50;;;;;9.52;78.43;100498.38;5074318;28;46251;-62
2022/11/24 06:31:59;;;;;;;;;0.25;0.25;;;;;9.50;78.21;100506.41;5075072;28;46414;-62
2022/11/24 06:34:24;;;;;;;;;1.00;1.00;;;;;9.50;78.44;100506.41;5072343;28;45173;-61
2022/11/24 06:36:50;;;;;;;;;1.00;1.00;;;;;9.50;78.91;100500.22;5077106;27;45388;-63
2022/11/24 06:39:15;;;;;;;;;7.00;2.00;;;;;9.49;78.40;100511.78;5075580;28;45533;-61
2022/11/24 06:41:41;;;;;;;;;4.25;1.00;;;;;9.44;78.71;100507.59;5058611;28;47335;-63
2022/11/24 06:44:07;;;;;;;;;0.00;0.00;;;;;9.50;79.00;100514.34;5058785;28;45468;-63
2022/11/24 06:46:32;;;;;;;;;1.00;1.00;;;;;9.48;78.55;100512.72;5058726;28;45484;-65
2022/11/24 06:48:58;;;;;;;;;0.00;0.00;;;;;9.45;78.53;100519.91;5068361;28;45489;-63
2022/11/24 06:51:25;;;;;;;;;3.00;1.75;;;;;9.48;78.49;100518.03;5025758;28;46160;-62
2022/11/24 06:53:50;;;;;;;;;3.00;1.00;;;;;9.44;79.00;100520.88;5038543;28;45400;-64
2022/11/24 06:56:18;;;;;;;;;3.50;0.25;;;;;9.45;78.96;100538.50;5056512;28;45643;-62
2022/11/24 06:58:46;;;;;;;;;1.00;1.00;;;;;9.39;78.91;100536.19;5056836;28;45523;-61
2022/11/24 07:01:21;;;;;;;;;2.00;0.25;;;;;9.42;78.87;100541.31;5069709;28;46354;-59
2022/11/24 07:03:47;;;;;;;;;3.25;0.75;;;;;9.35;79.90;100539.91;5076588;27;45325;-63
2022/11/24 07:06:13;;;;;;;;;5.00;1.00;;;;;9.43;78.99;100552.81;5076886;28;45170;-68
2022/11/24 07:08:39;;;;;;;;;7.00;2.25;;;;;9.42;79.99;100559.91;5058918;28;45612;-61
2022/11/24 07:11:06;;;;;;;;;3.00;1.00;;;;;9.43;79.56;100571.38;5056156;28;45505;-65
2022/11/24 07:13:32;;;;;;;;;1.00;1.00;;;;;9.44;79.53;100579.25;5056341;28;45335;-61
2022/11/24 07:15:57;;;;;;;;;1.00;1.00;;;;;9.45;79.72;100580.97;5056333;28;45295;-59
2022/11/24 07:18:23;;;;;;;;;1.50;1.50;;;;;9.44;80.14;100575.75;5057151;28;45504;-62
2022/11/24 07:20:48;;;;;;;;;2.00;2.00;;;;;9.48;80.63;100587.06;5076523;27;48703;-60
2022/11/24 07:23:13;;;;;;;;;4.00;1.25;;;;;9.42;79.72;100578.50;5075312;28;45214;-62
2022/11/24 07:25:39;;;;;;;;;3.50;2.25;;;;;9.48;80.34;100589.72;5066433;28;45216;-61
2022/11/24 07:28:04;;;;;;;;;2.00;2.00;;;;;9.46;79.54;100595.97;5076605;28;45319;-66
2022/11/24 07:30:30;;;;;;;;;8.25;1.75;;;;;9.49;80.29;100594.09;5076164;28;45601;-63
2022/11/24 07:33:00;;;;;;;;;3.00;2.00;;;;;9.49;80.81;100596.75;5076482;27;45816;-64
2022/11/24 07:35:25;;;;;;;;;5.50;2.00;;;;;9.46;80.05;100590.66;5077428;27;45411;-62
2022/11/24 07:37:54;;;;;;;;;4.75;2.00;;;;;9.51;80.96;100589.59;5057995;28;45510;-65
2022/11/24 07:40:19;;;;;;;;;2.00;1.00;;;;;9.52;81.00;100588.66;5078387;27;47120;-63
2022/11/24 07:42:45;;;;;;;;;2.00;2.00;;;;;9.54;79.91;100592.94;5077932;27;46389;-66
2022/11/24 07:45:10;;;;;;;;;3.00;2.50;;;;;9.52;80.28;100589.50;5078180;27;45501;-59
2022/11/24 07:47:39;;;;;;;;;2.50;1.75;;;;;9.51;80.08;100597.53;5079162;27;45547;-66
2022/11/24 07:50:08;;;;;;;;;5.00;1.00;;;;;9.42;80.61;100598.88;5081518;27;45519;-67
2022/11/24 07:52:34;;;;;;;;;1.50;1.00;;;;;9.50;81.04;100609.06;5080908;27;45363;-58
2022/11/24 07:55:00;;;;;;;;;6.25;3.50;;;;;9.49;80.14;100616.19;5080577;28;45449;-62
2022/11/24 07:57:25;;;;;;;;;2.75;2.75;;;;;9.48;80.64;100617.13;5088474;27;45521;-62
2022/11/24 07:59:50;;;;;;;;;1.50;1.00;;;;;9.49;80.23;100615.31;5075959;27;46618;-64
2022/11/24 08:02:16;;;;;;;;;2.00;2.00;;;;;9.49;81.28;100620.63;5074051;28;45228;-64
2022/11/24 08:04:41;;;;;;;;;2.00;2.00;;;;;9.55;80.87;100625.66;5041630;28;45285;-64
2022/11/24 08:07:07;;;;;;;;;7.00;5.50;;;;;9.53;80.62;100639.00;5059298;28;45223;-61
2022/11/24 08:09:32;;;;;;;;;7.00;6.50;;;;;9.49;80.63;100634.75;5040839;28;45311;-65
2022/11/24 08:11:57;;;;;;;;;5.50;2.75;;;;;9.53;80.93;100632.84;5059651;28;45237;-64
2022/11/24 08:14:23;;;;;;;;;3.75;2.75;;;;;9.51;80.28;100634.72;5063988;28;45376;-62
2022/11/24 08:16:48;;;;;;;;;5.00;2.00;;;;;9.58;80.74;100636.09;5060477;28;45425;-64
2022/11/24 08:19:14;;;;;;;;;5.25;2.50;;;;;9.56;81.18;100648.59;5041107;28;45500;-64
2022/11/24 08:21:39;;;;;;;;;13.00;10.00;;;;;9.60;80.41;100647.50;5063828;28;45517;-64
2022/11/24 08:24:05;;;;;;;;;9.25;4.75;;;;;9.67;80.69;100651.56;5080461;27;45320;-61
2022/11/24 08:26:31;;;;;;;;;6.00;4.50;;;;;9.66;80.46;100660.47;5079332;28;45402;-59
2022/11/24 08:28:58;;;;;;;;;5.25;4.25;;;;;9.69;80.82;100665.63;5079225;28;46139;-61
2022/11/24 08:31:31;;;;;;;;;2.00;2.00;;;;;9.74;81.04;100666.22;5078402;28;45366;-59
2022/11/24 08:33:56;;;;;;;;;3.00;3.00;;;;;9.70;80.02;100672.66;5079107;27;45419;-61
2022/11/24 08:36:22;;;;;;;;;10.50;5.00;;;;;9.72;80.06;100666.31;5078572;28;45278;-62
2022/11/24 08:38:48;;;;;;;;;6.50;5.00;;;;;9.76;80.34;100685.59;5078530;28;52609;-60
2022/11/24 08:41:15;;;;;;;;;6.25;5.00;;;;;9.82;80.26;100681.78;5078721;28;45427;-62
2022/11/24 08:43:41;;;;;;;;;5.00;5.00;;;;;9.85;80.02;100682.47;5078822;28;45302;-63
2022/11/24 08:46:10;;;;;;;;;6.50;1.00;;;;;9.88;79.33;100686.78;5078500;27;45656;-59
2022/11/24 08:48:36;;;;;;;;;6.00;3.50;;;;;9.88;80.10;100692.94;5077515;28;45445;-59
2022/11/24 08:51:11;;;;;;;;;7.00;3.00;;;;;9.86;80.00;100681.53;5068102;27;45680;-62
2022/11/24 08:53:37;;;;;;;;;7.25;3.00;;;;;9.94;79.97;100687.34;5079767;27;45329;-63
2022/11/24 08:56:03;;;;;;;;;6.75;3.00;;;;;9.95;79.56;100689.03;5087481;27;45541;-57
2022/11/24 08:58:29;;;;;;;;;3.50;3.00;;;;;9.91;79.99;100682.19;5098978;27;46258;-59
2022/11/24 09:00:54;;;;;;;;;7.25;2.00;;;;;9.96;79.93;100677.47;5084342;27;45483;-62
2022/11/24 09:03:20;;;;;;;;;2.00;2.00;;;;;10.03;85.12;100684.19;5078832;28;45426;-57
2022/11/24 09:05:45;;;;;;;;;5.75;4.00;;;;;10.11;80.08;100683.78;5078024;27;45698;-57
2022/11/24 09:08:11;;;;;;;;;6.00;3.75;;;;;10.10;80.02;100684.72;5078580;27;46305;-59
2022/11/24 09:10:37;;;;;;;;;6.25;4.25;;;;;10.11;79.69;100693.56;5078598;27;45384;-61
2022/11/24 09:13:02;;;;;;;;;8.00;5.67;;;;;10.14;80.08;100688.06;5078711;28;45487;-62
2022/11/24 09:15:28;;;;;;;;;5.67;3.00;;;;;10.16;79.95;100691.53;5078903;28;45273;-61
2022/11/24 09:17:53;;;;;;;;;2.75;2.00;;;;;10.19;80.46;100688.72;5078316;27;45998;-61
2022/11/24 09:20:20;;;;;;;;;2.00;2.00;;;;;10.23;80.14;100693.81;5078167;28;45331;-58
2022/11/24 09:22:46;;;;;;;;;7.50;5.00;;;;;10.28;79.73;100690.88;5077581;28;45591;-59
2022/11/24 09:25:12;;;;;;;;;6.00;3.50;;;;;10.29;79.26;100692.63;5060241;28;45660;-62
2022/11/24 09:27:38;;;;;;;;;6.75;3.00;;;;;10.30;79.04;100689.91;5077923;27;45421;-59
2022/11/24 09:30:04;;;;;;;;;5.00;3.00;;;;;10.33;78.97;100702.16;5078008;28;46525;-58
2022/11/24 09:32:30;;;;;;;;;6.75;5.75;;;;;10.38;79.01;100692.13;5078396;28;45288;-60
2022/11/24 09:34:56;;;;;;;;;3.00;2.00;;;;;10.45;78.56;100693.53;5077926;28;45233;-59
2022/11/24 09:37:21;;;;;;;;;7.25;5.00;;;;;10.52;77.84;100696.69;5078105;27;45316;-61
2022/11/24 09:39:46;;;;;;;;;3.00;3.00;;;;;10.55;77.68;100685.91;5078798;27;45205;-63
2022/11/24 09:42:21;;;;;;;;;3.00;2.25;;;;;10.56;76.77;100679.66;5080691;27;47070;-62
2022/11/24 09:45:05;;;;;;;;;4.00;4.00;;;;;10.60;77.34;100689.16;5079587;28;45350;-59
2022/11/24 09:47:36;;;;;;;;;6.00;4.75;;;;;10.61;76.69;100677.59;5078421;28;45439;-58
2022/11/24 09:50:09;;;;;;;;;3.00;3.00;;;;;10.63;76.50;100681.88;5076718;28;45490;-60
2022/11/24 09:52:43;;;;;;;;;3.00;3.00;;;;;10.68;76.65;100684.31;5078015;28;45355;-59
2022/11/24 09:55:24;;;;;;;;;6.25;2.75;;;;;10.75;76.10;100688.31;5059682;28;45461;-65
2022/11/24 09:58:01;;;;;;;;;2.75;2.00;;;;;10.79;75.25;100697.00;5066219;28;46113;-62
2022/11/24 10:00:28;;;;;;;;;3.00;3.00;;;;;10.83;76.08;100698.56;5070376;28;45361;-62
2022/11/24 10:02:54;;;;;;;;;4.33;2.67;;;;;10.90;75.25;100697.25;5075495;28;45390;-64
2022/11/24 10:05:25;;;;;;;;;4.00;4.00;;;;;10.96;75.48;100707.56;5059791;28;45391;-64
2022/11/24 10:08:26;;;;;;;;;7.00;4.75;;;;;11.02;75.19;100719.66;5077908;28;45935;-66
2022/11/24 10:11:11;;;;;;;;;7.00;3.00;;;;;11.10;74.96;100712.13;5077535;28;45324;-67
2022/11/24 10:14:11;;;;;;;;;7.50;3.25;;;;;11.18;74.99;100700.06;5075523;27;45421;-59
2022/11/24 10:17:00;;;;;;;;;11.00;7.50;;;;;11.28;74.48;100704.88;5077885;28;45228;-60
2022/11/24 10:19:38;;;;;;;;;16.00;5.33;;;;;11.33;74.47;100697.47;5077067;28;46072;-63
2022/11/24 10:22:32;;;;;;;;;9.33;3.00;;;;;11.35;74.31;100680.50;5077853;27;45420;-60
2022/11/24 10:25:35;;;;;;;;;2.00;2.00;;;;;11.46;74.06;100682.53;5077258;27;45436;-66
2022/11/24 10:28:04;;;;;;;;;4.00;2.33;;;;;11.44;73.52;100660.44;5058978;27;45645;-59
2022/11/24 10:30:29;;;;;;;;;6.00;4.00;;;;;11.59;73.82;100672.88;5075029;27;46305;-59
2022/11/24 10:33:00;;;;;;;;;3.00;3.00;;;;;11.70;73.53;100675.75;5075819;27;45471;-59
2022/11/24 10:35:56;;;;;;;;;7.00;4.00;;;;;11.83;73.52;100673.25;5087860;27;45604;-61
2022/11/24 10:38:41;;;;;;;;;6.00;4.00;;;;;11.91;72.63;100678.13;5072282;28;45498;-61
2022/11/24 10:41:19;;;;;;;;;7.67;4.67;;;;;12.03;72.95;100675.56;5076635;28;45443;-63
2022/11/24 10:43:44;;;;;;;;;3.67;3.67;;;;;12.11;71.77;100667.13;5077597;28;45224;-62
2022/11/24 10:46:25;;;;;;;;;3.67;3.00;;;;;12.17;71.45;100658.75;5075868;27;45457;-62
2022/11/24 10:48:57;;;;;;;;;5.33;2.00;;;;;12.21;71.50;100662.91;5077219;27;45586;-60
2022/11/24 10:52:04;;;;;;;;;5.00;3.00;;;;;12.27;71.65;100659.03;5077001;28;45531;-64
2022/11/24 10:54:30;;;;;;;;;3.33;3.33;;;;;12.35;71.49;100646.91;4994272;28;45469;-63
2022/11/24 10:56:56;;;;;;;;;2.67;2.67;;;;;12.40;71.26;100650.16;4978298;28;45362;-61
2022/11/24 10:59:36;;;;;;;;;6.67;3.00;;;;;12.47;70.70;100649.78;5027700;28;45606;-60
2022/11/24 11:02:23;;;;;;;;;5.00;3.67;;;;;12.50;70.03;100646.91;5077069;28;45432;-61
2022/11/24 11:04:49;;;;;;;;;6.33;4.33;;;;;12.53;70.27;100650.25;5076539;27;45843;-62
2022/11/24 11:07:16;;;;;;;;;6.33;4.00;;;;;12.62;70.63;100644.31;5076513;28;45717;-59
2022/11/24 11:09:41;;;;;;;;;4.67;3.67;;;;;12.68;70.11;100641.28;5074079;28;45599;-62
2022/11/24 11:12:30;;;;;;;;;7.00;4.67;;;;;12.72;69.50;100633.06;5076367;28;46144;-60
2022/11/24 11:14:55;;;;;;;;;8.00;7.00;;;;;12.77;69.75;100631.84;5069728;27;45359;-62
2022/11/24 11:17:35;;;;;;;;;4.67;4.00;;;;;12.75;69.25;100635.53;5091970;27;45551;-65
2022/11/24 11:20:04;;;;;;;;;8.33;7.00;;;;;12.77;69.02;100626.50;5076451;28;45513;-61
2022/11/24 11:22:32;;;;;;;;;2.33;2.00;;;;;12.75;69.54;100623.03;5076575;28;45371;-62
2022/11/24 11:25:22;;;;;;;;;7.67;6.67;;;;;12.72;69.70;100622.38;5076367;28;45212;-63
2022/11/24 11:27:48;;;;;;;;;7.00;4.00;;;;;12.74;69.51;100618.66;5073388;27;45344;-60
2022/11/24 11:30:20;;;;;;;;;5.00;3.00;;;;;12.79;68.71;100619.25;5076545;28;45382;-62
2022/11/24 11:33:16;;;;;;;;;7.00;4.00;;;;;12.79;69.43;100613.91;5058107;28;48048;-62